< < Back
Terminal Aerodrome Forecast


Current Version              Previous Versions:   1  2  3  4  5  6  7  8  9  

Terminal Aerodrome Forecast

035
FTUS42 KTAE 231700
TAFTLH
TAF
KTLH 231720Z 2318/2418 06008KT P6SM SKC
     FM240000 00000KT P6SM SKC=

Latest METAR

300
SAUS80 KWBC 241600 RRA
MTRTLH
METAR KTLH 241553Z 08003KT 10SM FEW250 23/07 A3006 RMK AO2 SLP179
T02280072 $


USA.gov is the U.S. government's official web portal to all federal, state and local government web resources and services.